createdAt,value
2022-10-07T00:10:00.625Z,12.81
2022-10-07T00:20:05.526Z,12.52
2022-10-07T00:30:10.219Z,12.34
2022-10-07T00:40:14.474Z,12.24
2022-10-07T00:50:24.383Z,12.31
2022-10-07T01:00:27.971Z,12.34
2022-10-07T01:10:49.010Z,12.30
2022-10-07T01:20:58.332Z,12.21
2022-10-07T01:31:07.580Z,11.85
2022-10-07T01:41:22.116Z,11.47
2022-10-07T01:51:29.051Z,11.08
2022-10-07T02:01:44.134Z,10.82
2022-10-07T02:11:57.265Z,10.63
2022-10-07T02:22:03.694Z,10.35
2022-10-07T02:32:12.225Z,10.19
2022-10-07T02:42:36.500Z,10.03
2022-10-07T02:52:44.264Z,9.71
2022-10-07T03:02:54.376Z,9.42
2022-10-07T03:13:00.007Z,9.22
2022-10-07T03:23:04.690Z,9.02
2022-10-07T03:33:09.982Z,9.00
2022-10-07T03:43:14.356Z,8.98
2022-10-07T03:53:19.458Z,8.96
2022-10-07T04:03:23.154Z,9.05
2022-10-07T04:13:27.653Z,9.19
2022-10-07T04:23:31.382Z,9.34
2022-10-07T04:33:39.634Z,9.53
2022-10-07T04:43:43.619Z,9.61
2022-10-07T04:53:57.106Z,9.73
2022-10-07T05:04:06.613Z,9.85
2022-10-07T05:14:10.578Z,9.94
2022-10-07T05:24:15.164Z,10.12
2022-10-07T05:34:20.812Z,10.30
2022-10-07T05:44:25.572Z,10.42
2022-10-07T05:54:30.048Z,10.70
2022-10-07T06:04:34.535Z,10.99
2022-10-07T06:14:38.710Z,11.32
2022-10-07T06:24:43.861Z,11.72
2022-10-07T06:34:47.929Z,11.89
2022-10-07T06:44:54.718Z,11.98
2022-10-07T06:54:59.514Z,12.22
2022-10-07T07:05:09.496Z,12.57
2022-10-07T07:15:14.526Z,13.07
2022-10-07T07:25:20.827Z,13.46
2022-10-07T07:35:29.513Z,13.75
2022-10-07T07:45:37.387Z,14.00
2022-10-07T07:55:55.698Z,14.45
2022-10-07T08:06:07.558Z,14.76
2022-10-07T08:16:14.826Z,14.98
2022-10-07T08:26:19.162Z,15.26
2022-10-07T08:36:25.054Z,15.43
2022-10-07T08:46:32.867Z,15.85
2022-10-07T08:56:36.818Z,16.23
2022-10-07T09:06:52.764Z,16.57
2022-10-07T09:17:08.708Z,16.77
2022-10-07T09:27:18.503Z,17.07
2022-10-07T09:37:24.532Z,17.42
2022-10-07T09:47:37.520Z,17.74
2022-10-07T09:57:42.921Z,17.95
2022-10-07T10:07:48.580Z,18.24
2022-10-07T10:17:53.320Z,18.47
2022-10-07T10:28:14.302Z,18.74
2022-10-07T10:38:27.765Z,18.98
2022-10-07T10:48:43.622Z,19.15
2022-10-07T10:58:58.520Z,19.35
2022-10-07T11:09:04.314Z,19.17
2022-10-07T11:19:21.332Z,19.06
2022-10-07T11:29:46.554Z,19.18
2022-10-07T11:39:51.610Z,19.47
2022-10-07T11:50:08.306Z,19.83
2022-10-07T12:00:33.995Z,20.17
2022-10-07T12:10:37.683Z,20.05
2022-10-07T12:20:50.981Z,19.76
2022-10-07T12:31:03.237Z,19.69
2022-10-07T12:41:27.188Z,19.88
2022-10-07T12:51:40.758Z,20.13
2022-10-07T13:02:17.720Z,20.38
2022-10-07T13:12:33.535Z,20.56
2022-10-07T13:22:40.167Z,20.70
2022-10-07T13:32:44.261Z,20.79
2022-10-07T13:43:02.143Z,20.83
2022-10-07T13:53:06.360Z,20.93
2022-10-07T14:03:17.254Z,20.91
2022-10-07T14:13:21.817Z,20.59
2022-10-07T14:23:34.555Z,20.22
2022-10-07T14:34:13.342Z,20.01
2022-10-07T14:44:18.649Z,19.72
2022-10-07T14:54:22.948Z,19.44
2022-10-07T15:04:27.642Z,19.09
2022-10-07T15:14:32.305Z,18.69
2022-10-07T15:24:36.158Z,18.37
2022-10-07T15:34:40.370Z,18.06
2022-10-07T15:44:44.941Z,17.62
2022-10-07T15:54:48.519Z,17.15
2022-10-07T16:04:53.168Z,16.58
2022-10-07T16:14:58.301Z,16.00
2022-10-07T16:25:01.965Z,15.50
2022-10-07T16:35:06.266Z,15.01
2022-10-07T16:45:10.311Z,14.50
2022-10-07T16:55:14.925Z,14.14
2022-10-07T17:05:19.499Z,13.84
2022-10-07T17:15:23.768Z,13.47
2022-10-07T17:25:28.398Z,13.08
2022-10-07T17:35:33.188Z,12.85
2022-10-07T17:45:38.156Z,12.61
2022-10-07T17:55:51.488Z,12.36
2022-10-07T18:05:56.650Z,12.13
2022-10-07T18:16:05.517Z,11.89
2022-10-07T18:26:12.306Z,11.63
2022-10-07T18:36:19.869Z,11.46
2022-10-07T18:46:24.612Z,11.33
2022-10-07T18:56:30.953Z,11.10
2022-10-07T19:06:39.995Z,10.93
2022-10-07T19:16:48.806Z,10.69
2022-10-07T19:26:55.547Z,10.34
2022-10-07T19:37:02.278Z,10.17
2022-10-07T19:47:08.103Z,9.96
2022-10-07T19:57:13.404Z,9.63
2022-10-07T20:07:18.504Z,9.50
2022-10-07T20:17:23.301Z,9.39
2022-10-07T20:27:27.459Z,9.21
2022-10-07T20:37:31.534Z,8.95
2022-10-07T20:47:35.617Z,8.78
2022-10-07T20:57:39.890Z,8.59
2022-10-07T21:07:43.772Z,8.46
2022-10-07T21:17:49.179Z,8.30
2022-10-07T21:27:53.762Z,8.18
2022-10-07T21:37:58.962Z,8.14
2022-10-07T21:48:02.857Z,8.07
2022-10-07T21:58:06.700Z,7.98
2022-10-07T22:08:34.517Z,7.88
2022-10-07T22:18:38.999Z,7.74
2022-10-07T22:28:43.815Z,7.61
2022-10-07T22:38:47.770Z,7.51
2022-10-07T22:48:54.212Z,7.67
2022-10-07T22:59:00.237Z,7.82
2022-10-07T23:09:04.904Z,7.81
2022-10-07T23:19:09.723Z,7.94
2022-10-07T23:29:14.199Z,7.91
2022-10-07T23:39:18.367Z,7.73
2022-10-07T23:49:21.997Z,7.61
2022-10-07T23:59:25.692Z,7.58
